Time;durP1;ratioP1;P1;durP2;ratioP2;P2;SDS_P1;SDS_P2;PMS_P1;PMS_P2;Temp;Humidity;BMP_temperature;BMP_pressure;BME280_temperature;BME280_humidity;BME280_pressure;Samples;Min_cycle;Max_cycle;Signal;HPM_P1;HPM_P2
2022/06/03 03:02:29;;;;;;;12.07;6.88;;;9.90;99.90;;;;;;6273635;22;20019;-76
2022/06/03 03:05:07;;;;;;;9.13;6.50;;;9.90;99.90;;;;;;6249239;22;20019;-76
2022/06/03 03:07:48;;;;;;;11.30;6.22;;;9.80;99.90;;;;;;6250077;22;20008;-77
2022/06/03 03:10:39;;;;;;;12.88;7.03;;;9.80;99.90;;;;;;6278243;22;20030;-78
2022/06/03 03:13:30;;;;;;;12.40;6.75;;;9.90;99.90;;;;;;6224663;22;20483;-76
2022/06/03 03:16:18;;;;;;;12.50;6.43;;;9.90;99.90;;;;;;6252216;22;20019;-75
2022/06/03 03:18:58;;;;;;;11.43;6.20;;;9.90;99.90;;;;;;6278715;22;20083;-77
2022/06/03 03:21:49;;;;;;;9.70;6.43;;;9.90;99.90;;;;;;6277217;22;20378;-77
2022/06/03 03:24:20;;;;;;;11.00;6.15;;;9.90;99.90;;;;;;6276964;22;20015;-76
2022/06/03 03:27:00;;;;;;;12.88;6.45;;;9.90;99.90;;;;;;6277380;22;20376;-77
2022/06/03 03:29:38;;;;;;;11.73;6.28;;;9.90;99.90;;;;;;6277561;22;20015;-77
2022/06/03 03:32:19;;;;;;;9.55;6.55;;;9.90;99.90;;;;;;6249788;22;20016;-76
2022/06/03 03:34:57;;;;;;;9.85;6.00;;;9.90;99.90;;;;;;6249897;22;20418;-77
2022/06/03 03:38:05;;;;;;;12.95;6.65;;;9.90;99.90;;;;;;6277317;22;20015;-77
2022/06/03 03:40:56;;;;;;;10.30;6.85;;;9.90;99.90;;;;;;6249891;22;20459;-78
2022/06/03 03:43:40;;;;;;;15.50;7.03;;;9.90;99.90;;;;;;6249647;22;20016;-77
2022/06/03 03:46:24;;;;;;;11.15;5.85;;;9.90;99.90;;;;;;6249725;22;20019;-78
2022/06/03 03:49:35;;;;;;;12.50;7.05;;;9.90;99.90;;;;;;6249777;22;20537;-78
2022/06/03 03:52:46;;;;;;;10.02;6.78;;;9.90;99.90;;;;;;6249657;22;20015;-78
2022/06/03 03:55:35;;;;;;;11.90;6.40;;;9.90;99.90;;;;;;6219944;22;20058;-78
2022/06/03 03:58:42;;;;;;;10.13;6.90;;;9.90;99.90;;;;;;6249815;22;20011;-76
2022/06/03 04:01:20;;;;;;;;;;;9.80;99.90;;;;;;6233669;22;20054;-76
2022/06/03 04:04:13;;;;;;;13.65;6.25;;;9.80;99.90;;;;;;6276916;22;19919;-76
2022/06/03 04:06:59;;;;;;;12.57;6.50;;;9.80;99.90;;;;;;6277047;22;20036;-76
2022/06/03 04:09:55;;;;;;;13.52;7.05;;;9.80;99.90;;;;;;6249598;22;20012;-76
2022/06/03 04:12:39;;;;;;;;;;;9.80;99.90;;;;;;6249996;22;20046;-77
2022/06/03 04:15:39;;;;;;;14.13;6.93;;;9.80;99.90;;;;;;6276697;22;19921;-77
2022/06/03 04:18:26;;;;;;;17.10;7.00;;;9.80;99.90;;;;;;6277488;22;20008;-77
2022/06/03 04:21:14;;;;;;;11.50;6.38;;;9.80;99.90;;;;;;6249589;22;20096;-77
2022/06/03 04:23:58;;;;;;;12.30;6.97;;;9.80;99.90;;;;;;6277135;22;20082;-78
2022/06/03 04:26:38;;;;;;;10.07;6.60;;;9.80;99.90;;;;;;6249482;22;20011;-77
2022/06/03 04:29:34;;;;;;;14.52;7.50;;;9.80;99.90;;;;;;6278124;22;20066;-76
2022/06/03 04:32:37;;;;;;;10.75;6.72;;;9.80;99.90;;;;;;6251636;22;20019;-78
2022/06/03 04:35:41;;;;;;;16.13;7.10;;;9.80;99.90;;;;;;6251680;22;20503;-77
2022/06/03 04:38:44;;;;;;;11.70;7.32;;;9.80;99.90;;;;;;6251925;22;20082;-77
2022/06/03 04:41:35;;;;;;;11.10;6.78;;;9.80;99.90;;;;;;6251822;22;20012;-77
2022/06/03 04:44:38;;;;;;;12.18;7.30;;;9.90;99.90;;;;;;6279200;22;20011;-77
2022/06/03 04:47:44;;;;;;;11.43;7.10;;;9.90;99.90;;;;;;6226320;22;20012;-78
2022/06/03 04:50:57;;;;;;;13.63;7.38;;;9.90;99.90;;;;;;6279089;22;20015;-77
2022/06/03 04:53:44;;;;;;;15.15;7.35;;;10.00;99.90;;;;;;6251768;22;20016;-77
2022/06/03 04:56:20;;;;;;;12.82;7.03;;;10.00;99.90;;;;;;6251659;22;20011;-76
2022/06/03 04:59:07;;;;;;;11.82;7.40;;;10.00;99.90;;;;;;6278725;22;20011;-75
2022/06/03 05:01:41;;;;;;;13.95;7.50;;;10.10;99.90;;;;;;6278632;22;20043;-77
2022/06/03 05:04:26;;;;;;;13.40;6.85;;;10.20;99.90;;;;;;6278459;22;20011;-77
2022/06/03 05:07:25;;;;;;;13.45;7.20;;;10.30;99.90;;;;;;6251920;22;20016;-77
2022/06/03 05:10:12;;;;;;;11.02;6.93;;;10.30;99.90;;;;;;6278529;22;20067;-76
2022/06/03 05:13:15;;;;;;;10.32;6.95;;;10.40;99.90;;;;;;6251374;22;20023;-76
2022/06/03 05:15:52;;;;;;;10.55;6.65;;;10.40;99.90;;;;;;6252409;22;20022;-77
2022/06/03 05:18:40;;;;;;;11.70;6.50;;;10.50;99.90;;;;;;6278570;22;20066;-77
2022/06/03 05:21:26;;;;;;;10.30;6.65;;;10.50;99.90;;;;;;6251221;22;20018;-78
2022/06/03 05:23:52;;;;;;;;;;;10.60;99.90;;;;;;6279379;22;20018;-77
2022/06/03 05:26:26;;;;;;;;;;;10.60;99.90;;;;;;6252272;22;19942;-76
2022/06/03 05:29:27;;;;;;;9.13;5.75;;;10.60;99.90;;;;;;6251170;22;19911;-77
2022/06/03 05:32:30;;;;;;;9.93;5.88;;;10.60;99.90;;;;;;6166018;23;20072;-76
2022/06/03 05:35:10;;;;;;;9.80;5.93;;;10.60;99.90;;;;;;6233902;23;20012;-76
2022/06/03 05:37:54;;;;;;;9.77;5.70;;;10.70;99.90;;;;;;6247787;22;20315;-76
2022/06/03 05:40:37;;;;;;;8.93;5.90;;;10.70;99.90;;;;;;6278173;22;20011;-77
2022/06/03 05:43:20;;;;;;;10.57;5.88;;;10.80;99.90;;;;;;6278695;22;20022;-76
2022/06/03 05:46:07;;;;;;;9.98;5.47;;;10.80;99.90;;;;;;6279345;22;20022;-77
2022/06/03 05:48:46;;;;;;;9.30;4.93;;;10.90;99.90;;;;;;6279274;22;20047;-76
2022/06/03 05:51:44;;;;;;;7.70;5.03;;;10.90;99.90;;;;;;6226247;22;20012;-76
2022/06/03 05:54:18;;;;;;;9.60;5.03;;;11.00;99.90;;;;;;6206367;22;20012;-76
2022/06/03 05:56:51;;;;;;;8.07;5.50;;;11.10;99.90;;;;;;6251816;22;20038;-76
2022/06/03 05:59:47;;;;;;;7.45;4.75;;;11.10;99.90;;;;;;6251196;22;20047;-78
2022/06/03 06:02:21;;;;;;;7.90;4.90;;;11.20;99.90;;;;;;6278343;22;20012;-76
2022/06/03 06:05:11;;;;;;;7.07;4.80;;;11.30;99.90;;;;;;6278646;22;20011;-77
2022/06/03 06:08:10;;;;;;;9.05;5.03;;;11.30;99.90;;;;;;6279302;22;20082;-75
2022/06/03 06:10:49;;;;;;;8.40;4.18;;;11.40;99.90;;;;;;6277942;22;20008;-81
2022/06/03 06:13:36;;;;;;;8.30;3.90;;;11.40;99.90;;;;;;6277979;22;20442;-76
2022/06/03 06:16:01;;;;;;;5.97;3.50;;;11.40;99.90;;;;;;6278681;22;20372;-76
2022/06/03 06:18:50;;;;;;;5.95;3.00;;;11.50;99.90;;;;;;6277635;22;20058;-78
2022/06/03 06:21:40;;;;;;;7.05;2.63;;;11.60;99.90;;;;;;6251486;22;20012;-79
2022/06/03 06:24:09;;;;;;;7.82;2.70;;;11.60;99.90;;;;;;6277839;22;20461;-78
2022/06/03 06:27:03;;;;;;;3.97;2.30;;;11.70;99.90;;;;;;6250918;22;20087;-78
2022/06/03 06:29:48;;;;;;;3.03;1.75;;;11.80;99.90;;;;;;6250607;22;20068;-75
2022/06/03 06:32:47;;;;;;;5.00;1.92;;;11.90;99.90;;;;;;6255945;22;20449;-78
2022/06/03 06:35:40;;;;;;;4.47;2.25;;;12.00;99.90;;;;;;6278040;22;20012;-77
2022/06/03 06:38:17;;;;;;;5.03;2.03;;;12.10;99.90;;;;;;6278138;22;20035;-76
2022/06/03 06:41:01;;;;;;;5.47;2.00;;;12.20;99.90;;;;;;6277740;22;20035;-76
2022/06/03 06:43:47;;;;;;;3.70;2.15;;;12.20;99.90;;;;;;6278022;22;20380;-78
2022/06/03 06:46:26;;;;;;;3.38;2.17;;;12.40;99.90;;;;;;6278059;22;20024;-76
2022/06/03 06:49:06;;;;;;;4.85;2.00;;;12.50;99.90;;;;;;6250385;22;20020;-77
2022/06/03 06:51:42;;;;;;;6.95;2.25;;;12.50;99.90;;;;;;6277276;22;20055;-77
2022/06/03 06:54:19;;;;;;;4.35;2.22;;;12.60;99.90;;;;;;6250250;22;20012;-77
2022/06/03 06:56:49;;;;;;;4.40;2.53;;;12.70;99.90;;;;;;6277495;22;20315;-77
2022/06/03 06:59:37;;;;;;;7.03;2.40;;;12.80;99.90;;;;;;6277854;22;20011;-77
2022/06/03 07:02:13;;;;;;;5.50;2.38;;;12.90;99.90;;;;;;6277182;22;20008;-78
2022/06/03 07:04:48;;;;;;;4.28;2.10;;;12.90;99.90;;;;;;6277461;22;20007;-78
2022/06/03 07:07:19;;;;;;;5.05;2.53;;;13.10;99.90;;;;;;6250313;22;20015;-78
2022/06/03 07:09:50;;;;;;;4.78;2.30;;;13.10;99.90;;;;;;6277718;22;20039;-75
2022/06/03 07:12:19;;;;;;;5.85;2.28;;;13.20;99.90;;;;;;6251455;22;20353;-77
2022/06/03 07:15:07;;;;;;;3.17;1.92;;;13.30;99.90;;;;;;6250087;22;20073;-77
2022/06/03 07:20:46;;;;;;;4.63;2.10;;;13.60;99.90;;;;;;6250036;22;20019;-77
2022/06/03 07:23:12;;;;;;;6.75;1.98;;;13.70;99.90;;;;;;6277109;22;20007;-78
2022/06/03 07:25:37;;;;;;;3.65;2.13;;;13.80;99.90;;;;;;6250168;22;20019;-76
2022/06/03 07:28:15;;;;;;;5.72;2.30;;;14.00;99.90;;;;;;6249994;22;20012;-77
2022/06/03 07:30:48;;;;;;;3.97;2.20;;;14.10;99.90;;;;;;6249857;22;20047;-79
2022/06/03 07:33:21;;;;;;;5.13;2.00;;;14.30;99.90;;;;;;6277618;22;20016;-78
2022/06/03 07:35:54;;;;;;;5.53;2.30;;;14.40;99.90;;;;;;6224766;22;20012;-77
2022/06/03 07:38:54;;;;;;;5.85;2.25;;;14.50;99.90;;;;;;6277727;22;20061;-78
2022/06/03 07:41:37;;;;;;;3.92;2.10;;;14.70;99.90;;;;;;6250266;22;20383;-76
2022/06/03 07:44:25;;;;;;;3.90;2.40;;;14.80;99.90;;;;;;6250037;22;20135;-76
2022/06/03 07:47:00;;;;;;;3.95;2.35;;;14.90;99.90;;;;;;6250867;22;20015;-78
2022/06/03 07:49:29;;;;;;;4.00;2.47;;;15.00;99.90;;;;;;6249749;22;20022;-76
2022/06/03 07:52:05;;;;;;;5.82;2.90;;;15.10;99.90;;;;;;6277979;22;20039;-77
2022/06/03 07:54:36;;;;;;;3.90;2.20;;;15.20;99.90;;;;;;6249503;22;20459;-77
2022/06/03 07:57:18;;;;;;;5.30;2.33;;;15.30;99.90;;;;;;6250482;22;20118;-78
2022/06/03 07:59:44;;;;;;;6.95;2.30;;;15.50;99.90;;;;;;6249599;22;20034;-77
2022/06/03 08:02:21;;;;;;;5.10;2.58;;;15.60;99.90;;;;;;6251299;22;20394;-76
2022/06/03 08:04:59;;;;;;;5.97;2.40;;;15.80;99.90;;;;;;6279260;22;20014;-76
2022/06/03 08:13:03;;;;;;;4.10;2.47;;;16.10;99.90;;;;;;6276891;22;20016;-78
2022/06/03 08:15:39;;;;;;;7.32;3.05;;;16.20;99.90;;;;;;6277216;22;20082;-78
2022/06/03 08:18:07;;;;;;;5.00;2.40;;;16.40;99.90;;;;;;6249694;22;20020;-77
2022/06/03 08:21:00;;;;;;;4.75;2.60;;;16.80;99.90;;;;;;6249397;22;20019;-78
2022/06/03 08:23:30;;;;;;;6.55;2.67;;;17.20;99.90;;;;;;6249576;22;20062;-78
2022/06/03 08:25:59;;;;;;;4.07;2.60;;;17.30;99.90;;;;;;6249516;22;20019;-77
2022/06/03 08:28:30;;;;;;;6.95;3.10;;;17.20;99.90;;;;;;6276984;22;20008;-77
2022/06/03 08:30:57;;;;;;;6.38;2.80;;;17.20;99.90;;;;;;6276462;22;20039;-76
2022/06/03 08:33:29;;;;;;;4.28;2.50;;;17.20;99.90;;;;;;6249389;22;20012;-78
2022/06/03 08:35:54;;;;;;;3.80;2.70;;;17.20;99.90;;;;;;6276621;22;20011;-77
2022/06/03 08:38:37;;;;;;;5.32;2.55;;;17.30;99.90;;;;;;6276944;22;20145;-78
2022/06/03 08:41:21;;;;;;;4.57;2.50;;;17.40;99.90;;;;;;6276723;22;20014;-78
2022/06/03 08:44:14;;;;;;;6.82;2.42;;;17.50;99.90;;;;;;6249489;22;20070;-75
2022/06/03 08:47:08;;;;;;;5.90;2.63;;;17.60;99.90;;;;;;6249595;22;20099;-76
2022/06/03 08:49:45;;;;;;;4.57;2.60;;;17.70;99.90;;;;;;6276702;22;20013;-76
2022/06/03 08:52:12;;;;;;;5.97;2.80;;;17.90;99.90;;;;;;6276798;22;20015;-77
2022/06/03 08:54:42;;;;;;;4.68;2.20;;;18.00;99.90;;;;;;6249244;22;20414;-80
2022/06/03 08:57:16;;;;;;;4.53;2.40;;;18.10;99.90;;;;;;6249217;22;20007;-79
2022/06/03 08:59:51;;;;;;;4.67;2.47;;;18.20;99.90;;;;;;6250231;22;20019;-78
2022/06/03 09:02:37;;;;;;;4.75;2.50;;;18.40;99.90;;;;;;6249097;22;20016;-76
2022/06/03 09:05:14;;;;;;;;;;;18.50;99.90;;;;;;6249618;22;20137;-75
2022/06/03 09:07:52;;;;;;;4.70;2.60;;;18.70;99.90;;;;;;6249228;22;19911;-76
2022/06/03 09:10:34;;;;;;;6.78;2.30;;;18.80;99.90;;;;;;6277315;22;20322;-77
2022/06/03 09:13:12;;;;;;;4.40;2.20;;;18.90;99.90;;;;;;6249415;22;20082;-77
2022/06/03 09:15:43;;;;;;;5.45;2.22;;;19.00;99.90;;;;;;6250963;22;20012;-79
2022/06/03 09:18:18;;;;;;;5.10;2.50;;;19.20;99.90;;;;;;6279636;22;20003;-79
2022/06/03 09:20:45;;;;;;;;;;;19.40;99.90;;;;;;6279213;22;20016;-78
2022/06/03 09:23:16;;;;;;;4.50;2.20;;;19.50;99.90;;;;;;6278509;22;19911;-79
2022/06/03 09:25:45;;;;;;;11.68;2.30;;;19.60;99.90;;;;;;6278434;22;20016;-75
2022/06/03 09:28:18;;;;;;;3.80;2.40;;;19.80;99.90;;;;;;6278457;22;20012;-79
2022/06/03 09:30:46;;;;;;;4.43;1.85;;;19.90;99.90;;;;;;6250861;22;20018;-77
2022/06/03 09:33:15;;;;;;;5.10;2.20;;;20.00;99.90;;;;;;6251112;22;20066;-77
2022/06/03 09:35:45;;;;;;;3.97;2.10;;;20.10;99.90;;;;;;6250914;22;20011;-76
2022/06/03 09:38:13;;;;;;;2.53;1.80;;;20.20;99.90;;;;;;6250836;22;20018;-78
2022/06/03 09:40:45;;;;;;;5.60;2.83;;;20.30;99.90;;;;;;6250611;22;20008;-78
2022/06/03 09:43:17;;;;;;;3.92;2.22;;;20.30;99.90;;;;;;6250746;22;20016;-75
2022/06/03 09:45:47;;;;;;;5.70;2.40;;;20.40;99.90;;;;;;6250825;22;20086;-77
2022/06/03 09:48:20;;;;;;;4.88;2.30;;;20.40;99.90;;;;;;6250693;22;20015;-78
2022/06/03 09:50:47;;;;;;;4.63;2.10;;;20.50;99.90;;;;;;6251721;22;20082;-78
2022/06/03 09:53:18;;;;;;;3.72;2.40;;;20.70;99.90;;;;;;6250803;22;20011;-77
2022/06/03 09:55:50;;;;;;;5.40;2.45;;;20.70;99.90;;;;;;6277784;22;20442;-76
2022/06/03 09:58:19;;;;;;;5.80;2.28;;;20.80;99.90;;;;;;6278512;22;20430;-78
2022/06/03 10:00:51;;;;;;;4.63;2.08;;;21.00;99.90;;;;;;6225590;22;20490;-77
2022/06/03 10:03:17;;;;;;;4.45;2.13;;;21.00;99.90;;;;;;6250661;22;20034;-77
2022/06/03 10:05:50;;;;;;;3.88;2.13;;;21.20;99.90;;;;;;6277753;22;20430;-77
2022/06/03 10:08:20;;;;;;;4.68;2.33;;;21.20;99.90;;;;;;6250606;22;20023;-79
2022/06/03 10:13:33;;;;;;;6.15;2.50;;;21.40;99.90;;;;;;6250576;22;20024;-77
2022/06/03 10:16:00;;;;;;;3.92;2.03;;;21.20;99.90;;;;;;6250729;22;20019;-78
2022/06/03 10:18:29;;;;;;;3.03;2.20;;;21.10;99.90;;;;;;6250404;22;20015;-76
2022/06/03 10:21:19;;;;;;;6.30;2.38;;;21.30;99.90;;;;;;6250479;22;20016;-77
2022/06/03 10:23:47;;;;;;;4.53;2.20;;;21.40;99.90;;;;;;6277725;22;20077;-77
2022/06/03 10:26:24;;;;;;;5.13;2.25;;;21.50;99.90;;;;;;6249986;22;20015;-76
2022/06/03 10:28:52;;;;;;;3.25;2.10;;;21.60;99.90;;;;;;6250683;22;20138;-77
2022/06/03 10:31:20;;;;;;;3.40;2.08;;;21.70;99.90;;;;;;6250129;22;20514;-76
2022/06/03 10:34:15;;;;;;;3.92;2.20;;;21.80;99.90;;;;;;6278045;22;20015;-77
2022/06/03 10:36:44;;;;;;;3.45;2.28;;;21.90;99.90;;;;;;6274283;22;20042;-80
2022/06/03 10:39:16;;;;;;;4.30;2.20;;;22.00;99.90;;;;;;6278080;22;20011;-77
2022/06/03 10:41:45;;;;;;;3.15;1.80;;;22.20;99.90;;;;;;6200541;22;20015;-78
2022/06/03 10:44:19;;;;;;;4.13;1.98;;;22.30;99.90;;;;;;6277512;22;20011;-79
2022/06/03 10:47:02;;;;;;;6.70;2.65;;;22.40;99.90;;;;;;6250426;22;20007;-77
2022/06/03 10:49:36;;;;;;;3.28;1.77;;;22.50;99.90;;;;;;6278139;22;20026;-78
2022/06/03 11:03:23;;;;;;;4.68;1.80;;;22.70;99.90;;;;;;6277609;22;20043;-78
2022/06/03 11:05:48;;;;;;;4.15;2.00;;;22.80;99.90;;;;;;6250049;22;20015;-77
2022/06/03 11:08:14;;;;;;;2.28;1.60;;;22.90;99.90;;;;;;6225100;22;20510;-77
2022/06/03 11:10:49;;;;;;;4.72;1.73;;;22.90;99.90;;;;;;6250727;22;20012;-77
2022/06/03 11:13:28;;;;;;;3.10;1.83;;;23.10;99.90;;;;;;6250460;22;20139;-78
2022/06/03 11:15:54;;;;;;;3.00;1.80;;;23.20;99.90;;;;;;6277524;22;20008;-81
2022/06/03 11:18:32;;;;;;;4.90;2.53;;;23.10;99.90;;;;;;6250059;22;20477;-80
2022/06/03 11:21:26;;;;;;;4.82;2.28;;;22.80;99.90;;;;;;6224478;22;20449;-79
2022/06/03 11:23:53;;;;;;;4.38;2.00;;;22.80;99.90;;;;;;6249214;22;20011;-84
2022/06/03 11:26:19;;;;;;;5.85;2.40;;;22.90;99.90;;;;;;6249955;22;20016;-75
2022/06/03 11:29:08;;;;;;;5.07;2.13;;;23.10;99.90;;;;;;6224673;22;20015;-78
2022/06/03 11:31:39;;;;;;;3.10;1.77;;;23.30;99.90;;;;;;6276894;22;20446;-78
2022/06/03 11:34:08;;;;;;;4.05;2.00;;;23.50;99.90;;;;;;6249761;22;20016;-78
2022/06/03 11:37:03;;;;;;;3.90;1.80;;;23.50;99.90;;;;;;6276965;22;20018;-77
2022/06/03 11:39:56;;;;;;;3.90;2.10;;;23.60;99.90;;;;;;6250138;22;20023;-79
2022/06/03 11:42:53;;;;;;;3.15;1.50;;;23.70;99.90;;;;;;6278369;22;20004;-77
2022/06/03 11:45:21;;;;;;;3.55;1.50;;;23.90;99.90;;;;;;6248567;22;20012;-78
2022/06/03 11:47:53;;;;;;;2.50;1.73;;;24.00;99.90;;;;;;6250670;22;20034;-75
2022/06/03 11:50:22;;;;;;;4.15;1.92;;;24.10;99.90;;;;;;6250026;22;20040;-80
2022/06/03 11:52:51;;;;;;;3.08;1.55;;;24.20;99.90;;;;;;6224323;22;20442;-79
2022/06/03 11:55:22;;;;;;;4.32;1.60;;;24.30;99.90;;;;;;6223970;22;20406;-79
2022/06/03 11:58:12;;;;;;;6.35;2.38;;;24.40;99.90;;;;;;6277037;22;20367;-77
2022/06/03 12:00:46;;;;;;;3.45;1.70;;;24.30;97.20;;;;;;6276668;22;20390;-79
2022/06/03 12:03:24;;;;;;;3.40;2.08;;;24.30;98.30;;;;;;6277750;22;20011;-83
2022/06/03 12:06:00;;;;;;;2.70;1.80;;;24.40;98.90;;;;;;6250205;22;20015;-77
2022/06/03 12:08:42;;;;;;;2.90;1.70;;;24.40;98.10;;;;;;6224411;22;20020;-77
2022/06/03 12:14:13;;;;;;;3.63;1.88;;;24.30;98.50;;;;;;6229677;22;20327;-76
2022/06/03 12:16:54;;;;;;;5.75;2.05;;;24.50;98.60;;;;;;6249315;22;20039;-77
2022/06/03 12:19:39;;;;;;;3.92;1.52;;;24.50;98.40;;;;;;6249236;22;20019;-80
2022/06/03 12:22:28;;;;;;;5.85;1.90;;;24.70;98.40;;;;;;6249401;22;20007;-77
2022/06/03 12:24:55;;;;;;;6.20;2.33;;;24.70;96.90;;;;;;6276816;22;20034;-79
2022/06/03 12:27:26;;;;;;;3.90;1.90;;;24.70;97.00;;;;;;6249393;22;20008;-78
2022/06/03 12:30:04;;;;;;;4.15;1.60;;;24.80;95.40;;;;;;6276800;22;20039;-78
2022/06/03 12:32:32;;;;;;;5.00;1.80;;;24.70;95.80;;;;;;6249248;22;20349;-79
2022/06/03 12:35:35;;;;;;;4.88;1.85;;;24.30;96.30;;;;;;6276818;22;20012;-77
2022/06/03 12:38:19;;;;;;;2.95;1.63;;;24.30;97.20;;;;;;6276866;22;20008;-78
2022/06/03 12:40:45;;;;;;;4.28;1.40;;;24.50;96.30;;;;;;6249056;22;20069;-77
2022/06/03 12:43:30;;;;;;;3.25;1.50;;;24.50;96.70;;;;;;6249066;22;20020;-80
2022/06/03 12:46:10;;;;;;;3.85;1.85;;;24.50;97.70;;;;;;6223735;22;20095;-78
2022/06/03 12:48:51;;;;;;;3.78;2.15;;;24.60;97.50;;;;;;6249325;22;20128;-78
2022/06/03 12:51:29;;;;;;;5.85;1.58;;;24.60;96.50;;;;;;6278607;22;20007;-76
2022/06/03 12:54:17;;;;;;;3.65;1.60;;;24.90;96.90;;;;;;6251255;22;20011;-78
2022/06/03 12:57:20;;;;;;;2.28;1.42;;;24.90;95.50;;;;;;6251040;22;20338;-79
2022/06/03 12:59:52;;;;;;;5.15;1.60;;;24.70;94.60;;;;;;6227408;22;20023;-79
2022/06/03 13:02:21;;;;;;;2.78;1.48;;;24.40;96.10;;;;;;6250894;22;20421;-77
2022/06/03 13:04:53;;;;;;;2.30;1.73;;;24.50;96.90;;;;;;6278406;22;20080;-76
2022/06/03 13:07:28;;;;;;;6.15;1.75;;;24.70;95.90;;;;;;6250255;22;20043;-77
2022/06/03 13:10:04;;;;;;;3.80;1.70;;;25.00;95.60;;;;;;6249981;22;20012;-76
2022/06/03 13:12:32;;;;;;;3.25;1.70;;;25.10;95.20;;;;;;6224366;22;20020;-77
2022/06/03 13:15:16;;;;;;;3.05;1.50;;;25.10;94.30;;;;;;6249979;22;20082;-78
2022/06/03 13:18:10;;;;;;;4.50;1.50;;;25.10;93.60;;;;;;6250713;22;20065;-78
2022/06/03 13:21:10;;;;;;;2.05;1.50;;;25.10;93.90;;;;;;6251028;22;20016;-78
2022/06/03 13:23:57;;;;;;;4.43;1.90;;;24.90;93.50;;;;;;6225628;22;20019;-76
2022/06/03 13:26:26;;;;;;;3.17;1.42;;;24.80;94.00;;;;;;6250993;22;20012;-77
2022/06/03 13:28:56;;;;;;;2.33;1.25;;;24.80;93.80;;;;;;6278391;22;20018;-77
2022/06/03 13:31:26;;;;;;;3.72;1.50;;;24.80;94.50;;;;;;6250815;22;20011;-76
2022/06/03 13:34:15;;;;;;;3.55;1.90;;;24.90;93.70;;;;;;6251728;22;20453;-80
2022/06/03 13:36:49;;;;;;;4.32;1.73;;;24.70;94.00;;;;;;6225344;22;20416;-78
2022/06/03 13:39:24;;;;;;;3.17;1.38;;;24.50;93.20;;;;;;6251047;22;20008;-78
2022/06/03 13:44:47;;;;;;;4.57;1.60;;;24.70;93.40;;;;;;6277901;22;20083;-78
2022/06/03 13:47:23;;;;;;;2.33;1.40;;;24.90;93.00;;;;;;6226212;22;20012;-78
2022/06/03 13:49:54;;;;;;;3.25;1.48;;;25.00;92.70;;;;;;6250632;22;20103;-80
2022/06/03 13:52:25;;;;;;;3.92;1.40;;;25.20;91.70;;;;;;6250607;22;20509;-79
2022/06/03 13:55:02;;;;;;;2.55;1.30;;;25.30;91.20;;;;;;6278788;22;20003;-78
2022/06/03 13:57:33;;;;;;;2.45;1.50;;;25.30;90.90;;;;;;6250592;22;20434;-76
2022/06/03 14:00:13;;;;;;;3.72;1.52;;;25.50;90.60;;;;;;6278254;22;20057;-77
2022/06/03 14:02:41;;;;;;;2.33;1.30;;;25.50;91.30;;;;;;6224988;22;20050;-77
2022/06/03 14:05:09;;;;;;;2.20;1.20;;;25.60;91.10;;;;;;6250568;22;20026;-78
2022/06/03 14:07:53;;;;;;;2.58;1.30;;;25.60;90.90;;;;;;6277932;22;20011;-77
2022/06/03 14:10:23;;;;;;;2.57;1.60;;;25.60;91.50;;;;;;6251419;22;20007;-78
2022/06/03 14:13:00;;;;;;;2.45;1.50;;;25.50;91.90;;;;;;6250615;22;20019;-79
2022/06/03 14:15:50;;;;;;;3.15;1.40;;;25.40;91.00;;;;;;6278003;22;20042;-80
2022/06/03 14:18:44;;;;;;;2.78;1.60;;;25.50;91.10;;;;;;6277936;22;20008;-79
2022/06/03 14:21:15;;;;;;;4.20;1.73;;;25.50;92.00;;;;;;6250304;22;20046;-77
2022/06/03 14:23:44;;;;;;;3.22;1.17;;;25.50;91.00;;;;;;6277536;22;20015;-80
2022/06/03 14:26:24;;;;;;;2.72;1.40;;;25.50;91.40;;;;;;6249182;22;20066;-78
2022/06/03 14:29:06;;;;;;;2.00;1.20;;;25.60;91.70;;;;;;6276512;22;20046;-78
2022/06/03 14:31:55;;;;;;;4.95;1.30;;;25.60;90.80;;;;;;6250097;22;20039;-77
2022/06/03 14:34:37;;;;;;;3.88;1.35;;;25.60;89.60;;;;;;6277234;22;20469;-81
2022/06/03 14:37:06;;;;;;;3.60;1.23;;;25.50;88.10;;;;;;6250277;22;20090;-79
2022/06/03 14:39:37;;;;;;;2.13;1.38;;;25.50;89.60;;;;;;6250605;22;20015;-77
2022/06/03 14:42:08;;;;;;;2.28;1.30;;;25.50;89.00;;;;;;6249389;22;20023;-79
2022/06/03 14:44:37;;;;;;;3.03;1.30;;;25.40;89.30;;;;;;6251197;22;20065;-77
2022/06/03 14:47:12;;;;;;;3.55;1.20;;;25.50;90.00;;;;;;6250528;22;20018;-78
2022/06/03 14:49:56;;;;;;;4.07;1.50;;;25.50;89.20;;;;;;6250048;22;20061;-76
2022/06/03 14:52:36;;;;;;;4.10;1.35;;;25.50;90.00;;;;;;6250022;22;20018;-78
2022/06/03 14:55:34;;;;;;;3.17;1.50;;;25.50;88.70;;;;;;6277687;22;20008;-81
2022/06/03 14:58:08;;;;;;;2.33;1.35;;;25.30;88.30;;;;;;6223941;22;20087;-77
2022/06/03 15:01:13;;;;;;;2.60;1.05;;;25.30;90.00;;;;;;6249817;22;20094;-78
2022/06/03 15:03:44;;;;;;;4.20;1.30;;;25.30;89.40;;;;;;6209270;22;20399;-79
2022/06/03 15:06:12;;;;;;;2.92;1.20;;;25.20;87.80;;;;;;6277342;22;20062;-80
2022/06/03 15:09:29;;;;;;;3.60;1.10;;;25.00;87.80;;;;;;6277428;22;20120;-79
2022/06/03 15:12:02;;;;;;;5.30;1.60;;;24.80;91.30;;;;;;6128730;23;20049;-78
2022/06/03 15:14:28;;;;;;;3.22;1.20;;;24.50;91.20;;;;;;6153802;23;20020;-79
2022/06/03 15:17:03;;;;;;;3.45;1.13;;;24.30;92.20;;;;;;6227454;22;20023;-79
2022/06/03 15:19:50;;;;;;;3.03;1.17;;;24.40;93.60;;;;;;6250377;22;20008;-81
2022/06/03 15:22:49;;;;;;;5.43;1.10;;;24.30;93.80;;;;;;6224653;22;20026;-80
2022/06/03 15:25:31;;;;;;;4.28;1.30;;;24.40;93.70;;;;;;6250137;22;20007;-78
2022/06/03 15:28:05;;;;;;;5.75;1.80;;;24.40;93.70;;;;;;6251030;22;20092;-78
2022/06/03 15:30:49;;;;;;;4.40;1.85;;;24.40;94.10;;;;;;6251048;22;20012;-78
2022/06/03 15:33:44;;;;;;;16.90;9.93;;;24.40;94.10;;;;;;6228697;22;20012;-79
2022/06/03 15:36:19;;;;;;;3.25;1.30;;;24.30;92.70;;;;;;6277287;22;20015;-81
2022/06/03 15:38:47;;;;;;;;;;;24.00;93.20;;;;;;6250444;22;20015;-80
2022/06/03 15:41:25;;;;;;;3.25;1.10;;;23.90;93.70;;;;;;6249711;22;19974;-79
2022/06/03 15:43:54;;;;;;;3.20;1.15;;;24.00;93.90;;;;;;6250655;22;20069;-80
2022/06/03 15:46:31;;;;;;;2.22;1.10;;;23.90;94.00;;;;;;6276614;22;20015;-78
2022/06/03 15:49:03;;;;;;;3.90;1.10;;;23.90;94.30;;;;;;6276942;22;20011;-79
2022/06/03 15:51:40;;;;;;;3.75;0.90;;;23.80;94.90;;;;;;6249538;22;20019;-78
2022/06/03 15:54:07;;;;;;;4.10;1.20;;;23.80;94.40;;;;;;6250248;22;20385;-79
2022/06/03 15:56:54;;;;;;;2.15;1.10;;;23.80;93.70;;;;;;6249626;22;20497;-81
2022/06/03 15:59:50;;;;;;;1.80;0.80;;;23.80;94.40;;;;;;6277158;22;20015;-80
2022/06/03 16:02:25;;;;;;;4.07;0.90;;;23.70;93.70;;;;;;6249553;22;20169;-79
2022/06/03 16:05:17;;;;;;;2.40;0.95;;;23.60;93.50;;;;;;6249551;22;20011;-82
2022/06/03 16:08:14;;;;;;;7.72;1.38;;;23.40;93.10;;;;;;6277078;22;20011;-79
2022/06/03 16:10:57;;;;;;;3.20;0.95;;;23.10;93.70;;;;;;6276366;22;20027;-81
2022/06/03 16:14:08;;;;;;;1.95;0.90;;;22.80;93.60;;;;;;6277010;22;20012;-80
2022/06/03 16:16:50;;;;;;;5.78;1.27;;;22.60;94.70;;;;;;6249308;22;20430;-78
2022/06/03 16:19:21;;;;;;;8.70;1.20;;;22.60;94.70;;;;;;6249414;22;20011;-78
2022/06/03 16:22:00;;;;;;;3.35;1.10;;;22.50;94.80;;;;;;6249338;22;20018;-79
2022/06/03 16:24:38;;;;;;;4.07;1.00;;;22.40;94.60;;;;;;6251612;22;20303;-77
2022/06/03 16:27:22;;;;;;;3.70;1.00;;;22.40;94.70;;;;;;6251594;22;20426;-79
2022/06/03 16:30:00;;;;;;;5.95;1.33;;;22.30;95.00;;;;;;6251528;22;20015;-78
2022/06/03 16:32:48;;;;;;;6.07;1.00;;;22.40;95.20;;;;;;6251502;22;20012;-77
2022/06/03 16:35:25;;;;;;;8.90;1.50;;;22.50;95.70;;;;;;6251660;22;20333;-79
2022/06/03 16:38:15;;;;;;;2.97;1.00;;;22.70;95.20;;;;;;6251386;22;20019;-80
2022/06/03 16:41:05;;;;;;;2.42;1.05;;;22.70;95.20;;;;;;6251489;22;20019;-78
2022/06/03 16:43:36;;;;;;;3.50;1.25;;;22.50;95.40;;;;;;6251607;22;20026;-80
2022/06/03 16:46:37;;;;;;;3.80;1.20;;;22.50;95.80;;;;;;6251563;22;20042;-81
2022/06/03 16:49:06;;;;;;;2.47;1.10;;;22.50;95.80;;;;;;6251284;22;20019;-78
2022/06/03 16:51:49;;;;;;;3.67;1.27;;;22.40;95.10;;;;;;6251005;22;20016;-79
2022/06/03 16:54:23;;;;;;;3.20;1.23;;;22.30;95.60;;;;;;6229934;22;20012;-77
2022/06/03 16:57:00;;;;;;;1.95;0.93;;;22.30;95.70;;;;;;6228134;22;20433;-75
2022/06/03 16:59:25;;;;;;;3.35;1.20;;;22.20;95.70;;;;;;6228319;22;20095;-76
2022/06/03 17:01:51;;;;;;;3.88;1.13;;;22.10;95.40;;;;;;6279614;22;20499;-77
2022/06/03 17:04:43;;;;;;;4.47;1.42;;;22.00;95.70;;;;;;6252733;22;20066;-78
2022/06/03 17:07:11;;;;;;;4.68;1.35;;;22.00;97.20;;;;;;6226279;22;20007;-78
2022/06/03 17:09:41;;;;;;;7.38;1.60;;;22.00;96.80;;;;;;6250431;22;20023;-76
2022/06/03 17:12:12;;;;;;;3.95;1.40;;;21.90;96.90;;;;;;6277808;22;20369;-76
2022/06/03 17:14:44;;;;;;;3.95;1.08;;;21.70;97.10;;;;;;6250548;22;20007;-79
2022/06/03 17:17:21;;;;;;;4.82;1.20;;;21.50;97.10;;;;;;6277820;22;20321;-80
2022/06/03 17:19:50;;;;;;;5.45;1.25;;;21.50;97.50;;;;;;6250886;22;20019;-77
2022/06/03 17:22:41;;;;;;;3.35;1.20;;;21.40;97.60;;;;;;6277883;22;20319;-80